To NAV CANADA Home Page Login to a new session Search on AWWS site Feedback and Comments Disclaimer Vers la page française équivalente Tips FAQ What's new on the site To the Forecasts and Observations / NOTAM section To "File a Flight Plan" website Publications and other links Update of the User's profile FIC Telephone Numbers My Weather Data Folder Route Weather Data Regional Weather Data Local Weather Data To the Forecasts and Observations / NOTAM section
Request Generated 05/29/2016 at 03:45:34 UTC . Weather information available at that time is displayed.

METAR/TAF

GOOSE BAY/NL    

METAR CYYR 290300Z 03006KT 15SM FEW050 FEW220 03/M01 A3020 RMK SC1CI0 SLP230=
METAR CYYR 290200Z 03006KT 15SM FEW050 FEW130 FEW220 05/01 A3020 RMK SC1AC1CI0 SLP228=
METAR CYYR 290100Z 04007KT 15SM FEW045 FEW130 FEW210 05/01 A3021 RMK SC1AC1CI0 SLP231=

TAF CYYR 290035Z 2900/2924 04008KT P6SM SCT025
FM290200 02005KT P6SM SCT015 TEMPO 2902/2905 SCT008 BKN015
FM290500 02005KT P6SM BKN015 TEMPO 2905/2913 BKN008
FM291300 34005KT P6SM FEW020
RMK NXT FCST BY 290600Z=
Your time UTC time
Weather data provided by Environment Canada and NAV CANADA